createdAt,value
2018-01-31T01:52:32.089Z,95.34
2018-01-31T01:54:57.855Z,95.48
2018-01-31T01:57:23.618Z,95.39
2018-01-31T01:59:49.367Z,95.54
2018-01-31T02:02:15.123Z,95.60
2018-01-31T02:04:40.892Z,95.56
2018-01-31T02:07:06.650Z,95.71
2018-01-31T02:09:32.407Z,95.63
2018-01-31T02:11:58.176Z,95.58
2018-01-31T02:14:23.944Z,95.53
2018-01-31T02:16:49.731Z,95.51
2018-01-31T02:19:15.475Z,95.33
2018-01-31T02:21:41.238Z,95.34
2018-01-31T02:24:06.999Z,95.32
2018-01-31T02:26:32.774Z,95.06
2018-01-31T02:28:58.530Z,94.99
2018-01-31T02:31:24.291Z,95.01
2018-01-31T02:33:50.058Z,95.00
2018-01-31T02:36:15.806Z,94.94
2018-01-31T02:38:53.881Z,94.85
2018-01-31T02:41:19.645Z,94.85
2018-01-31T02:43:45.411Z,94.81
2018-01-31T02:46:11.164Z,94.88
2018-01-31T02:48:36.934Z,94.83
2018-01-31T02:51:02.696Z,94.83
2018-01-31T02:53:28.459Z,94.72
2018-01-31T02:55:54.211Z,94.62
2018-01-31T02:58:20.004Z,94.59
2018-01-31T03:00:45.776Z,94.57
2018-01-31T03:03:11.547Z,94.43
2018-01-31T03:05:37.303Z,94.52
2018-01-31T03:08:03.079Z,94.43
2018-01-31T03:10:28.835Z,94.42
2018-01-31T03:12:54.602Z,94.44
2018-01-31T03:15:20.362Z,94.39
2018-01-31T03:17:46.135Z,94.33
2018-01-31T03:20:11.878Z,94.23
2018-01-31T03:22:37.623Z,94.28
2018-01-31T03:25:03.383Z,94.17
2018-01-31T03:27:29.139Z,94.23
2018-01-31T03:29:54.906Z,94.24
2018-01-31T03:32:20.675Z,94.24
2018-01-31T03:34:46.435Z,94.14
2018-01-31T03:37:12.191Z,94.15
2018-01-31T03:39:37.959Z,93.98
2018-01-31T03:42:03.706Z,93.89
2018-01-31T03:44:29.472Z,93.74
2018-01-31T03:46:55.227Z,93.79
2018-01-31T03:49:20.986Z,93.76
2018-01-31T03:51:46.746Z,93.92
2018-01-31T03:54:12.502Z,93.69
2018-01-31T03:56:38.266Z,93.69
2018-01-31T03:59:04.022Z,93.58
2018-01-31T04:01:29.783Z,93.68
2018-01-31T04:03:55.534Z,93.54
2018-01-31T04:06:21.294Z,93.53
2018-01-31T04:08:47.064Z,93.49
2018-01-31T04:11:12.876Z,93.59
2018-01-31T04:13:38.587Z,93.51
2018-01-31T04:16:04.358Z,93.34
2018-01-31T04:18:30.105Z,93.28
2018-01-31T04:20:55.867Z,93.31
2018-01-31T04:23:21.618Z,93.43
2018-01-31T04:25:47.382Z,93.30
2018-01-31T04:28:13.135Z,93.40
2018-01-31T04:30:38.898Z,93.41
2018-01-31T04:33:04.661Z,93.30
2018-01-31T04:35:30.429Z,93.31
2018-01-31T04:37:56.171Z,93.08
2018-01-31T04:40:21.924Z,93.08
2018-01-31T04:42:47.699Z,92.84
2018-01-31T04:45:13.455Z,92.93
2018-01-31T04:47:39.207Z,92.84
2018-01-31T04:50:04.973Z,92.46
2018-01-31T04:52:30.743Z,92.38
2018-01-31T04:54:56.486Z,92.46
2018-01-31T04:57:22.228Z,92.44
2018-01-31T04:59:47.963Z,92.07
2018-01-31T05:02:13.713Z,92.15
2018-01-31T05:04:39.461Z,91.97
2018-01-31T05:07:05.231Z,91.81
2018-01-31T05:09:30.992Z,91.74
2018-01-31T05:11:56.767Z,91.68
2018-01-31T05:14:22.509Z,91.68
2018-01-31T05:16:48.266Z,91.53
2018-01-31T05:19:14.091Z,91.36
2018-01-31T05:21:39.865Z,91.00
2018-01-31T05:24:05.609Z,91.04
2018-01-31T05:26:31.375Z,91.03
2018-01-31T05:28:57.132Z,91.01
2018-01-31T05:31:22.896Z,90.91
2018-01-31T05:33:48.650Z,90.79
2018-01-31T05:36:14.395Z,90.96
2018-01-31T05:38:40.162Z,91.01
2018-01-31T05:41:05.907Z,90.92
2018-01-31T05:43:32.455Z,90.64
2018-01-31T05:45:58.207Z,90.27
2018-01-31T05:48:23.968Z,90.05
2018-01-31T05:50:49.711Z,89.58
2018-01-31T05:53:15.467Z,89.26
2018-01-31T05:55:41.223Z,89.10
2018-01-31T05:58:07.034Z,89.13
2018-01-31T06:00:32.798Z,88.87
2018-01-31T06:02:58.583Z,88.95
2018-01-31T06:05:24.335Z,89.05
2018-01-31T06:07:50.105Z,89.17
2018-01-31T06:10:15.854Z,88.96
2018-01-31T06:12:41.614Z,88.91
2018-01-31T06:15:07.363Z,89.03
2018-01-31T06:17:33.107Z,89.00
2018-01-31T06:19:58.859Z,89.06
2018-01-31T06:22:24.611Z,89.00
2018-01-31T06:24:50.375Z,89.03
2018-01-31T06:27:16.125Z,89.04
2018-01-31T06:29:41.890Z,89.09
2018-01-31T06:32:07.647Z,89.12
2018-01-31T06:34:33.408Z,89.01
2018-01-31T06:36:59.157Z,89.03
2018-01-31T06:39:24.924Z,89.27
2018-01-31T06:41:50.684Z,89.89
2018-01-31T06:44:16.457Z,90.58
2018-01-31T06:46:42.211Z,91.73
2018-01-31T06:49:07.971Z,92.52
2018-01-31T06:51:33.730Z,92.94
2018-01-31T06:53:59.503Z,93.07
2018-01-31T06:56:25.243Z,93.31
2018-01-31T06:58:51.015Z,94.12
2018-01-31T07:01:16.780Z,94.78
2018-01-31T07:03:42.550Z,95.22
2018-01-31T07:06:08.310Z,95.64
2018-01-31T07:08:34.092Z,95.91
2018-01-31T07:10:59.843Z,96.23
2018-01-31T07:13:25.609Z,96.45
2018-01-31T07:15:51.406Z,96.64
2018-01-31T07:18:17.131Z,96.70
2018-01-31T07:20:42.886Z,96.83
2018-01-31T07:23:08.645Z,96.95
2018-01-31T07:25:34.415Z,97.06
2018-01-31T07:28:00.172Z,97.14
2018-01-31T07:30:25.935Z,97.29
2018-01-31T07:32:51.698Z,97.43
2018-01-31T07:35:17.471Z,97.53
2018-01-31T07:37:43.222Z,97.60
2018-01-31T07:40:08.986Z,97.67
2018-01-31T07:42:34.738Z,97.68
2018-01-31T07:45:00.538Z,97.70
2018-01-31T07:47:26.278Z,97.77
2018-01-31T07:49:52.028Z,97.80
2018-01-31T07:52:17.774Z,97.84
2018-01-31T07:54:43.531Z,97.81
2018-01-31T07:57:09.287Z,97.93
2018-01-31T07:59:35.051Z,97.95
2018-01-31T08:02:00.795Z,98.08
2018-01-31T08:04:26.531Z,98.13
2018-01-31T08:06:52.295Z,98.18
2018-01-31T08:09:18.027Z,98.19
2018-01-31T08:11:43.799Z,98.22
2018-01-31T08:14:09.555Z,98.16
2018-01-31T08:16:35.331Z,98.09
2018-01-31T08:19:01.087Z,98.22
2018-01-31T08:21:26.862Z,98.28
2018-01-31T08:23:52.611Z,98.09
2018-01-31T08:26:18.367Z,98.08
2018-01-31T08:28:44.122Z,98.14
2018-01-31T08:31:09.891Z,98.24
2018-01-31T08:33:35.647Z,98.20
2018-01-31T08:36:01.417Z,98.23
2018-01-31T08:38:27.166Z,98.20
2018-01-31T08:40:52.935Z,98.37
2018-01-31T08:43:18.703Z,98.42
2018-01-31T08:45:44.459Z,98.36
2018-01-31T08:48:10.220Z,98.42
2018-01-31T08:50:35.978Z,98.47
2018-01-31T08:53:01.768Z,98.46
2018-01-31T08:55:27.520Z,98.53
2018-01-31T08:57:53.278Z,98.54
2018-01-31T09:00:19.035Z,98.56
2018-01-31T09:02:44.794Z,98.65
2018-01-31T09:05:10.544Z,98.64
2018-01-31T09:07:36.354Z,98.67
2018-01-31T09:10:02.091Z,98.71
2018-01-31T09:12:27.853Z,98.71
2018-01-31T09:14:53.626Z,98.73
2018-01-31T09:17:19.382Z,98.84
2018-01-31T09:19:45.150Z,98.90
2018-01-31T09:22:10.911Z,98.94
2018-01-31T09:24:36.671Z,98.97
2018-01-31T09:27:02.444Z,99.02
2018-01-31T09:29:28.207Z,99.01
2018-01-31T09:31:53.968Z,99.05
2018-01-31T09:34:19.727Z,99.01
2018-01-31T09:36:45.481Z,99.05
2018-01-31T09:39:11.255Z,99.07
2018-01-31T09:41:37.006Z,99.06
2018-01-31T09:44:02.763Z,99.06
2018-01-31T09:46:28.519Z,99.05
2018-01-31T09:48:54.288Z,99.07
2018-01-31T09:51:20.034Z,98.92
2018-01-31T09:53:45.803Z,98.84
2018-01-31T09:56:11.566Z,98.80
2018-01-31T09:58:37.331Z,98.78
2018-01-31T10:01:03.098Z,98.66
2018-01-31T10:03:28.865Z,98.60
2018-01-31T10:05:54.624Z,98.53
2018-01-31T10:08:20.384Z,98.49
2018-01-31T10:10:46.138Z,98.32
2018-01-31T10:13:11.894Z,98.17
2018-01-31T10:15:37.643Z,98.17
2018-01-31T10:18:03.391Z,98.13
2018-01-31T10:20:29.148Z,97.75
2018-01-31T10:22:54.898Z,97.65
2018-01-31T10:25:20.659Z,97.79
2018-01-31T10:27:46.416Z,98.09
2018-01-31T10:30:12.171Z,98.25
2018-01-31T10:32:37.939Z,98.27
2018-01-31T10:35:03.711Z,98.25
2018-01-31T10:37:29.467Z,98.17
2018-01-31T10:39:55.218Z,98.30
2018-01-31T10:42:20.958Z,98.18
2018-01-31T10:44:46.723Z,98.13
2018-01-31T10:47:12.483Z,98.29
2018-01-31T10:49:38.234Z,98.36
2018-01-31T10:52:03.989Z,98.31
2018-01-31T10:57:29.099Z,98.22
2018-01-31T10:59:21.283Z,98.03
2018-01-31T11:01:47.048Z,97.95
2018-01-31T11:04:12.798Z,97.65
2018-01-31T11:06:38.566Z,97.58
2018-01-31T11:09:04.320Z,97.54
2018-01-31T11:11:30.101Z,97.56
2018-01-31T11:13:55.843Z,97.36
2018-01-31T11:16:21.607Z,97.50
2018-01-31T11:18:47.371Z,96.82
2018-01-31T11:21:13.136Z,96.72
2018-01-31T11:23:38.887Z,96.77
2018-01-31T11:26:04.659Z,96.33
2018-01-31T11:28:30.419Z,96.44
2018-01-31T11:30:56.175Z,96.34
2018-01-31T11:33:21.943Z,96.00
2018-01-31T11:35:47.718Z,96.27
2018-01-31T11:38:13.468Z,96.31
2018-01-31T11:40:39.246Z,95.76
2018-01-31T11:43:05.015Z,96.00
2018-01-31T11:45:30.775Z,96.38
2018-01-31T11:47:56.522Z,95.96
2018-01-31T11:50:22.272Z,96.27
2018-01-31T11:52:48.039Z,95.97
2018-01-31T11:55:13.801Z,95.00
2018-01-31T11:57:39.557Z,95.54
2018-01-31T12:00:05.307Z,95.38
2018-01-31T12:02:31.067Z,94.91
2018-01-31T12:04:56.828Z,93.95
2018-01-31T12:07:22.599Z,92.66
2018-01-31T12:09:48.371Z,93.25
2018-01-31T12:15:22.222Z,93.04
2018-01-31T12:17:47.982Z,91.24
2018-01-31T12:20:26.150Z,89.96
2018-01-31T12:23:04.252Z,90.13
2018-01-31T12:25:41.242Z,92.00
2018-01-31T12:28:19.299Z,91.94
2018-01-31T12:33:59.466Z,91.79
2018-01-31T12:39:25.863Z,92.37
2018-01-31T12:41:51.486Z,92.47
2018-01-31T12:44:17.115Z,93.20
2018-01-31T12:46:55.226Z,92.86
2018-01-31T12:49:33.450Z,92.53
2018-01-31T12:52:11.755Z,92.20
2018-01-31T12:54:49.978Z,91.80
2018-01-31T12:57:28.314Z,92.18
2018-01-31T13:00:06.615Z,91.94
2018-01-31T13:06:00.378Z,91.82
2018-01-31T13:08:38.548Z,91.26
2018-01-31T13:14:10.238Z,93.00
2018-01-31T13:19:47.162Z,93.23
2018-01-31T13:22:25.499Z,93.60
2018-01-31T13:25:03.724Z,93.35
2018-01-31T13:27:50.979Z,94.04
2018-01-31T13:30:29.323Z,94.19
2018-01-31T13:33:13.762Z,94.00
2018-01-31T13:35:51.918Z,93.92
2018-01-31T13:38:30.114Z,94.12
2018-01-31T13:41:08.399Z,94.48
2018-01-31T13:43:46.668Z,94.89
2018-01-31T13:46:24.881Z,95.42
2018-01-31T13:49:03.074Z,94.06
2018-01-31T13:51:41.295Z,94.20
2018-01-31T13:54:19.606Z,94.31
2018-01-31T13:56:57.795Z,94.51
2018-01-31T13:59:36.023Z,94.82
2018-01-31T14:02:03.728Z,93.74
2018-01-31T14:04:41.901Z,94.06
2018-01-31T14:07:20.113Z,93.92
2018-01-31T14:09:58.358Z,93.47
2018-01-31T14:12:36.567Z,93.60
2018-01-31T14:15:14.775Z,92.42
2018-01-31T14:17:53.066Z,92.94
2018-01-31T14:20:31.272Z,92.18
2018-01-31T14:23:09.439Z,91.58
2018-01-31T14:25:47.597Z,92.46
2018-01-31T14:28:25.737Z,91.80
2018-01-31T14:31:04.023Z,93.09
2018-01-31T14:33:42.310Z,91.89
2018-01-31T14:36:11.818Z,92.69
2018-01-31T14:38:37.449Z,92.61
2018-01-31T14:41:03.079Z,92.62
2018-01-31T14:43:28.699Z,93.25
2018-01-31T14:45:54.339Z,92.58
2018-01-31T14:48:19.990Z,93.84
2018-01-31T14:50:45.638Z,94.08
2018-01-31T14:53:11.262Z,94.33
2018-01-31T14:55:36.894Z,94.57
2018-01-31T14:58:02.547Z,93.96
2018-01-31T15:00:28.175Z,93.97
2018-01-31T15:02:53.819Z,93.40
2018-01-31T15:05:19.442Z,93.06
2018-01-31T15:07:45.082Z,93.85
2018-01-31T15:10:10.711Z,94.13
2018-01-31T15:12:36.338Z,94.54
2018-01-31T15:15:01.963Z,95.09
2018-01-31T15:17:27.598Z,94.77
2018-01-31T15:19:53.223Z,94.96
2018-01-31T15:22:18.856Z,94.68
2018-01-31T15:24:44.470Z,95.20
2018-01-31T15:27:10.107Z,94.45
2018-01-31T15:29:35.734Z,94.85
2018-01-31T15:32:01.371Z,94.47
2018-01-31T15:34:26.994Z,94.55
2018-01-31T15:36:52.624Z,95.06
2018-01-31T15:39:18.255Z,94.90
2018-01-31T15:41:43.866Z,94.97
2018-01-31T15:44:09.522Z,93.46
2018-01-31T15:46:35.151Z,91.13
2018-01-31T15:49:00.779Z,92.01
2018-01-31T15:51:26.407Z,91.34
2018-01-31T15:53:52.052Z,91.78
2018-01-31T15:56:17.675Z,92.69
2018-01-31T15:58:43.308Z,93.37
2018-01-31T16:01:08.934Z,92.64
2018-01-31T16:03:34.560Z,91.06
2018-01-31T16:06:00.179Z,91.70
2018-01-31T16:08:25.822Z,92.34
2018-01-31T16:10:51.451Z,92.19
2018-01-31T16:13:17.067Z,93.23
2018-01-31T16:15:42.710Z,93.96
2018-01-31T16:18:08.470Z,93.62
2018-01-31T16:20:46.403Z,93.79
2018-01-31T16:23:12.147Z,92.79
2018-01-31T16:25:37.908Z,92.83
2018-01-31T16:31:13.519Z,93.79
2018-01-31T16:33:39.283Z,93.84
2018-01-31T16:36:05.064Z,93.88
2018-01-31T16:38:30.807Z,93.74
2018-01-31T16:40:56.576Z,95.06
2018-01-31T16:43:22.355Z,94.27
2018-01-31T16:45:48.126Z,94.08
2018-01-31T16:48:13.874Z,94.18
2018-01-31T16:50:39.635Z,94.23
2018-01-31T16:53:05.414Z,94.45
2018-01-31T16:55:31.180Z,94.31
2018-01-31T16:57:56.939Z,94.45
2018-01-31T17:00:22.695Z,94.56
2018-01-31T17:02:48.470Z,94.67
2018-01-31T17:05:14.222Z,94.56
2018-01-31T17:07:39.994Z,94.54
2018-01-31T17:10:05.752Z,94.57
2018-01-31T17:12:31.543Z,94.65
2018-01-31T17:14:57.293Z,94.45
2018-01-31T17:17:23.040Z,94.58
2018-01-31T17:19:48.787Z,94.51
2018-01-31T17:22:14.536Z,94.51
2018-01-31T17:24:40.278Z,94.77
2018-01-31T17:27:06.047Z,94.21
2018-01-31T17:29:31.807Z,94.44
2018-01-31T17:31:57.572Z,94.60
2018-01-31T17:34:23.336Z,94.43
2018-01-31T17:36:49.100Z,94.75
2018-01-31T17:39:14.868Z,94.79
2018-01-31T17:41:40.602Z,94.98
2018-01-31T17:44:06.351Z,94.08
2018-01-31T17:46:32.103Z,94.20
2018-01-31T17:48:57.887Z,94.05
2018-01-31T17:51:23.646Z,93.82
2018-01-31T17:53:49.424Z,93.56
2018-01-31T17:56:15.185Z,93.43
2018-01-31T17:58:40.954Z,93.39
2018-01-31T18:01:06.715Z,93.25
2018-01-31T18:03:32.471Z,93.29
2018-01-31T18:05:58.231Z,93.32
2018-01-31T18:08:24.004Z,92.63
2018-01-31T18:10:49.755Z,92.61
2018-01-31T18:13:15.543Z,92.79
2018-01-31T18:15:41.503Z,92.11
2018-01-31T18:18:07.314Z,91.31
2018-01-31T18:20:33.055Z,90.76
2018-01-31T18:22:58.810Z,92.07
2018-01-31T18:25:24.623Z,92.60
2018-01-31T18:27:50.636Z,91.82
2018-01-31T18:30:16.464Z,90.85
2018-01-31T18:32:42.722Z,91.00
2018-01-31T18:35:08.484Z,91.15
2018-01-31T18:37:34.296Z,91.21
2018-01-31T18:40:00.670Z,91.13
2018-01-31T18:42:26.446Z,90.87
2018-01-31T18:44:52.258Z,90.86
2018-01-31T18:47:18.042Z,90.81
2018-01-31T18:49:45.080Z,91.10
2018-01-31T18:52:10.961Z,91.03
2018-01-31T18:54:37.274Z,91.67
2018-01-31T18:57:03.559Z,91.53
2018-01-31T18:59:29.833Z,91.65
2018-01-31T19:01:55.956Z,91.30
2018-01-31T19:04:21.946Z,91.36
2018-01-31T19:06:48.212Z,91.50
2018-01-31T19:09:14.079Z,90.80
2018-01-31T19:11:39.860Z,91.24
2018-01-31T19:14:05.728Z,92.01
2018-01-31T19:16:31.495Z,91.41
2018-01-31T19:18:57.510Z,91.78
2018-01-31T19:21:23.326Z,91.27
2018-01-31T19:23:49.364Z,92.00
2018-01-31T19:26:15.491Z,92.10
2018-01-31T19:28:41.543Z,92.37
2018-01-31T19:31:07.994Z,92.09
2018-01-31T19:33:33.826Z,92.21
2018-01-31T19:35:59.593Z,91.78
2018-01-31T19:38:25.351Z,92.17
2018-01-31T19:40:51.118Z,92.07
2018-01-31T19:43:16.896Z,92.53
2018-01-31T19:45:42.672Z,91.65
2018-01-31T19:48:08.423Z,90.97
2018-01-31T19:50:34.183Z,92.04
2018-01-31T19:53:00.023Z,94.41
2018-01-31T19:55:25.879Z,95.99
2018-01-31T19:57:51.679Z,96.46
2018-01-31T20:00:17.456Z,96.39
2018-01-31T20:02:43.223Z,96.43
2018-01-31T20:05:09.057Z,96.63
2018-01-31T20:07:34.820Z,96.28
2018-01-31T20:10:00.579Z,96.27
2018-01-31T20:12:26.355Z,95.92
2018-01-31T20:14:52.135Z,96.29
2018-01-31T20:17:17.910Z,96.08
2018-01-31T20:19:44.198Z,95.81
2018-01-31T20:22:09.983Z,96.46
2018-01-31T20:24:42.742Z,96.12
2018-01-31T20:27:08.503Z,95.74
2018-01-31T20:29:34.267Z,96.39
2018-01-31T20:32:00.065Z,96.74
2018-01-31T20:34:25.814Z,96.86
2018-01-31T20:36:51.566Z,96.92
2018-01-31T20:39:17.332Z,97.07
2018-01-31T20:41:43.075Z,96.94
2018-01-31T20:44:08.827Z,96.89
2018-01-31T20:46:34.594Z,97.18
2018-01-31T20:49:00.359Z,97.09
2018-01-31T20:51:26.111Z,97.05
2018-01-31T20:53:51.890Z,97.06
2018-01-31T20:56:17.644Z,96.89
2018-01-31T20:58:43.418Z,97.16
2018-01-31T21:01:09.196Z,97.07
2018-01-31T21:03:34.963Z,96.87
2018-01-31T21:06:00.724Z,96.59
2018-01-31T21:08:26.501Z,96.46
2018-01-31T21:10:52.246Z,96.43
2018-01-31T21:13:18.036Z,96.50
2018-01-31T21:15:43.781Z,96.71
2018-01-31T21:18:09.543Z,96.86
2018-01-31T21:20:35.312Z,96.52
2018-01-31T21:23:01.059Z,96.51
2018-01-31T21:25:26.841Z,96.68
2018-01-31T21:27:52.594Z,96.69
2018-01-31T21:30:18.372Z,96.68
2018-01-31T21:32:44.130Z,96.95
2018-01-31T21:35:09.898Z,96.88
2018-01-31T21:37:35.651Z,97.03
2018-01-31T21:40:01.412Z,96.55
2018-01-31T21:42:27.175Z,96.79
2018-01-31T21:44:52.959Z,96.80
2018-01-31T21:47:18.703Z,96.94
2018-01-31T21:49:44.466Z,96.60
2018-01-31T21:52:10.223Z,96.68
2018-01-31T21:54:35.991Z,96.48
2018-01-31T21:57:01.756Z,96.52
2018-01-31T21:59:27.510Z,96.56
2018-01-31T22:01:53.279Z,96.66
2018-01-31T22:04:19.030Z,96.52
2018-01-31T22:06:44.799Z,95.85
2018-01-31T22:09:10.556Z,95.76
2018-01-31T22:11:36.331Z,96.14
2018-01-31T22:14:02.090Z,96.42
2018-01-31T22:16:27.859Z,95.92
2018-01-31T22:18:53.618Z,95.80
2018-01-31T22:21:19.388Z,95.99
2018-01-31T22:23:45.149Z,95.75
2018-01-31T22:26:10.924Z,95.85
2018-01-31T22:28:36.666Z,96.23
2018-01-31T22:31:02.430Z,95.96
2018-01-31T22:33:28.200Z,95.64
2018-01-31T22:35:53.956Z,96.02
2018-01-31T22:38:19.727Z,95.79
2018-01-31T22:40:45.487Z,95.52
2018-01-31T22:43:11.251Z,95.30
2018-01-31T22:45:37.006Z,95.65
2018-01-31T22:48:02.784Z,95.60
2018-01-31T22:50:28.535Z,95.49
2018-01-31T22:52:54.315Z,95.30
2018-01-31T22:55:20.124Z,95.07
2018-01-31T22:57:45.887Z,95.58
2018-01-31T23:00:11.646Z,95.16
2018-01-31T23:02:37.490Z,95.25
2018-01-31T23:05:03.247Z,95.28
2018-01-31T23:07:29.024Z,94.85
2018-01-31T23:09:54.775Z,94.96
2018-01-31T23:12:23.506Z,95.34
2018-01-31T23:14:51.252Z,95.45
2018-01-31T23:17:23.103Z,95.15
2018-01-31T23:19:48.871Z,94.84
2018-01-31T23:22:14.630Z,95.16
2018-01-31T23:24:40.527Z,95.15
2018-01-31T23:27:06.291Z,94.85
2018-01-31T23:29:32.283Z,95.13
2018-01-31T23:31:58.037Z,95.12
2018-01-31T23:34:24.076Z,94.87
2018-01-31T23:36:49.820Z,94.94
2018-01-31T23:39:15.583Z,94.75
2018-01-31T23:41:41.895Z,94.32
2018-01-31T23:44:07.688Z,93.88
2018-01-31T23:46:33.578Z,93.82
2018-01-31T23:48:59.419Z,94.41
2018-01-31T23:51:25.166Z,93.96
2018-01-31T23:53:51.193Z,94.31
2018-01-31T23:56:17.568Z,93.59
2018-01-31T23:58:43.420Z,93.96
